sensor_id;sensor_type;location;lat;lon;timestamp;temperature;humidity
75509;DHT22;64214;47.250;11.332;2024-03-06T00:00:26;27.69;58.45
75509;DHT22;64214;47.250;11.332;2024-03-06T00:00:57;27.72;58.50
75509;DHT22;64214;47.250;11.332;2024-03-06T00:01:28;27.69;58.21
75509;DHT22;64214;47.250;11.332;2024-03-06T00:01:59;27.71;57.74
75509;DHT22;64214;47.250;11.332;2024-03-06T00:02:29;27.72;57.73
75509;DHT22;64214;47.250;11.332;2024-03-06T00:03:00;27.72;57.51
75509;DHT22;64214;47.250;11.332;2024-03-06T00:03:31;27.68;57.38
75509;DHT22;64214;47.250;11.332;2024-03-06T00:04:03;27.71;57.60
75509;DHT22;64214;47.250;11.332;2024-03-06T00:04:34;27.69;57.80
75509;DHT22;64214;47.250;11.332;2024-03-06T00:05:05;27.74;58.02
75509;DHT22;64214;47.250;11.332;2024-03-06T00:05:38;27.71;58.12
75509;DHT22;64214;47.250;11.332;2024-03-06T00:06:08;27.72;58.17
75509;DHT22;64214;47.250;11.332;2024-03-06T00:06:39;27.72;58.02
75509;DHT22;64214;47.250;11.332;2024-03-06T00:07:10;27.72;58.04
75509;DHT22;64214;47.250;11.332;2024-03-06T00:07:41;27.71;58.22
75509;DHT22;64214;47.250;11.332;2024-03-06T00:08:12;27.72;58.35
75509;DHT22;64214;47.250;11.332;2024-03-06T00:08:42;27.74;58.41
75509;DHT22;64214;47.250;11.332;2024-03-06T00:09:13;27.71;58.73
75509;DHT22;64214;47.250;11.332;2024-03-06T00:09:44;27.74;58.81
75509;DHT22;64214;47.250;11.332;2024-03-06T00:10:15;27.72;58.50
75509;DHT22;64214;47.250;11.332;2024-03-06T00:10:46;27.75;58.45
75509;DHT22;64214;47.250;11.332;2024-03-06T00:11:17;27.74;58.58
75509;DHT22;64214;47.250;11.332;2024-03-06T00:11:48;27.75;58.51
75509;DHT22;64214;47.250;11.332;2024-03-06T00:12:21;27.72;58.59
75509;DHT22;64214;47.250;11.332;2024-03-06T00:12:52;27.72;58.50
75509;DHT22;64214;47.250;11.332;2024-03-06T00:13:23;27.74;58.31
75509;DHT22;64214;47.250;11.332;2024-03-06T00:13:53;27.72;58.39
75509;DHT22;64214;47.250;11.332;2024-03-06T00:14:24;27.75;58.25
75509;DHT22;64214;47.250;11.332;2024-03-06T00:14:55;27.74;58.10
75509;DHT22;64214;47.250;11.332;2024-03-06T00:15:26;27.74;58.06
75509;DHT22;64214;47.250;11.332;2024-03-06T00:15:58;27.72;58.19
75509;DHT22;64214;47.250;11.332;2024-03-06T00:16:29;27.71;58.31
75509;DHT22;64214;47.250;11.332;2024-03-06T00:16:59;27.71;58.20
75509;DHT22;64214;47.250;11.332;2024-03-06T00:17:31;27.74;58.07
75509;DHT22;64214;47.250;11.332;2024-03-06T00:18:01;27.72;58.11
75509;DHT22;64214;47.250;11.332;2024-03-06T00:18:34;27.72;58.00
75509;DHT22;64214;47.250;11.332;2024-03-06T00:19:05;27.75;57.99
75509;DHT22;64214;47.250;11.332;2024-03-06T00:19:35;27.74;58.13
75509;DHT22;64214;47.250;11.332;2024-03-06T00:20:06;27.71;58.26
75509;DHT22;64214;47.250;11.332;2024-03-06T00:20:39;27.72;58.23
75509;DHT22;64214;47.250;11.332;2024-03-06T00:21:12;27.74;58.11
75509;DHT22;64214;47.250;11.332;2024-03-06T00:21:43;27.74;58.26
75509;DHT22;64214;47.250;11.332;2024-03-06T00:22:14;27.74;58.16
75509;DHT22;64214;47.250;11.332;2024-03-06T00:22:45;27.71;58.04
75509;DHT22;64214;47.250;11.332;2024-03-06T00:23:16;27.71;58.06
75509;DHT22;64214;47.250;11.332;2024-03-06T00:23:47;27.72;57.86
75509;DHT22;64214;47.250;11.332;2024-03-06T00:24:18;27.72;57.65
75509;DHT22;64214;47.250;11.332;2024-03-06T00:24:49;27.72;57.38
75509;DHT22;64214;47.250;11.332;2024-03-06T00:25:20;27.74;57.20
75509;DHT22;64214;47.250;11.332;2024-03-06T00:25:50;27.72;57.02
75509;DHT22;64214;47.250;11.332;2024-03-06T00:26:22;27.75;57.13
75509;DHT22;64214;47.250;11.332;2024-03-06T00:26:52;27.72;57.32
75509;DHT22;64214;47.250;11.332;2024-03-06T00:27:24;27.72;57.62
75509;DHT22;64214;47.250;11.332;2024-03-06T00:27:54;27.75;57.81
75509;DHT22;64214;47.250;11.332;2024-03-06T00:28:25;27.75;57.92
75509;DHT22;64214;47.250;11.332;2024-03-06T00:28:56;27.77;57.73
75509;DHT22;64214;47.250;11.332;2024-03-06T00:29:27;27.74;57.82
75509;DHT22;64214;47.250;11.332;2024-03-06T00:29:57;27.75;57.85
75509;DHT22;64214;47.250;11.332;2024-03-06T00:30:28;27.74;57.78
75509;DHT22;64214;47.250;11.332;2024-03-06T00:30:59;27.74;57.80
75509;DHT22;64214;47.250;11.332;2024-03-06T00:31:30;27.74;58.21
75509;DHT22;64214;47.250;11.332;2024-03-06T00:32:00;27.75;58.28
75509;DHT22;64214;47.250;11.332;2024-03-06T00:32:31;27.77;58.04
75509;DHT22;64214;47.250;11.332;2024-03-06T00:33:02;27.75;57.86
75509;DHT22;64214;47.250;11.332;2024-03-06T00:33:33;27.72;57.92
75509;DHT22;64214;47.250;11.332;2024-03-06T00:34:04;27.77;58.02
75509;DHT22;64214;47.250;11.332;2024-03-06T00:34:35;27.77;57.90
75509;DHT22;64214;47.250;11.332;2024-03-06T00:35:06;27.74;57.95
75509;DHT22;64214;47.250;11.332;2024-03-06T00:35:36;27.75;57.96
75509;DHT22;64214;47.250;11.332;2024-03-06T00:36:07;27.74;58.07
75509;DHT22;64214;47.250;11.332;2024-03-06T00:36:38;27.75;57.95
75509;DHT22;64214;47.250;11.332;2024-03-06T00:37:09;27.72;57.94
75509;DHT22;64214;47.250;11.332;2024-03-06T00:37:39;27.74;57.94
75509;DHT22;64214;47.250;11.332;2024-03-06T00:38:10;27.74;57.78
75509;DHT22;64214;47.250;11.332;2024-03-06T00:38:41;27.72;57.69
75509;DHT22;64214;47.250;11.332;2024-03-06T00:39:12;27.72;57.82
75509;DHT22;64214;47.250;11.332;2024-03-06T00:39:44;27.74;57.98
75509;DHT22;64214;47.250;11.332;2024-03-06T00:40:15;27.72;57.95
75509;DHT22;64214;47.250;11.332;2024-03-06T00:40:46;27.75;57.80
75509;DHT22;64214;47.250;11.332;2024-03-06T00:41:17;27.75;57.86
75509;DHT22;64214;47.250;11.332;2024-03-06T00:41:48;27.72;57.59
75509;DHT22;64214;47.250;11.332;2024-03-06T00:42:19;27.75;57.39
75509;DHT22;64214;47.250;11.332;2024-03-06T00:42:49;27.74;57.47
75509;DHT22;64214;47.250;11.332;2024-03-06T00:43:20;27.74;57.78
75509;DHT22;64214;47.250;11.332;2024-03-06T00:43:51;27.75;57.79
75509;DHT22;64214;47.250;11.332;2024-03-06T00:44:22;27.78;57.78
75509;DHT22;64214;47.250;11.332;2024-03-06T00:44:52;27.74;57.67
75509;DHT22;64214;47.250;11.332;2024-03-06T00:45:23;27.72;57.53
75509;DHT22;64214;47.250;11.332;2024-03-06T00:45:54;27.74;57.45
75509;DHT22;64214;47.250;11.332;2024-03-06T00:46:25;27.74;57.37
75509;DHT22;64214;47.250;11.332;2024-03-06T00:46:56;27.74;57.27
75509;DHT22;64214;47.250;11.332;2024-03-06T00:47:27;27.74;57.26
75509;DHT22;64214;47.250;11.332;2024-03-06T00:47:57;27.72;56.98
75509;DHT22;64214;47.250;11.332;2024-03-06T00:48:28;27.72;56.61
75509;DHT22;64214;47.250;11.332;2024-03-06T00:48:59;27.71;56.86
75509;DHT22;64214;47.250;11.332;2024-03-06T00:49:30;27.72;57.25
75509;DHT22;64214;47.250;11.332;2024-03-06T00:50:01;27.75;57.38
75509;DHT22;64214;47.250;11.332;2024-03-06T00:50:32;27.77;57.44
75509;DHT22;64214;47.250;11.332;2024-03-06T00:51:03;27.75;57.47
75509;DHT22;64214;47.250;11.332;2024-03-06T00:51:33;27.74;57.30
75509;DHT22;64214;47.250;11.332;2024-03-06T00:52:07;27.74;57.28
75509;DHT22;64214;47.250;11.332;2024-03-06T00:52:39;27.77;57.40
75509;DHT22;64214;47.250;11.332;2024-03-06T00:53:10;27.75;57.43
75509;DHT22;64214;47.250;11.332;2024-03-06T00:53:41;27.75;57.59
75509;DHT22;64214;47.250;11.332;2024-03-06T00:54:12;27.75;57.72
75509;DHT22;64214;47.250;11.332;2024-03-06T00:54:43;27.75;57.65
75509;DHT22;64214;47.250;11.332;2024-03-06T00:55:13;27.75;57.57
75509;DHT22;64214;47.250;11.332;2024-03-06T00:55:44;27.75;57.68
75509;DHT22;64214;47.250;11.332;2024-03-06T00:56:15;27.75;57.70
75509;DHT22;64214;47.250;11.332;2024-03-06T00:56:46;27.74;57.69
75509;DHT22;64214;47.250;11.332;2024-03-06T00:57:17;27.75;57.75
75509;DHT22;64214;47.250;11.332;2024-03-06T00:57:47;27.74;57.80
75509;DHT22;64214;47.250;11.332;2024-03-06T00:58:18;27.74;57.70
75509;DHT22;64214;47.250;11.332;2024-03-06T00:58:49;27.74;57.79
75509;DHT22;64214;47.250;11.332;2024-03-06T00:59:20;27.72;57.84
75509;DHT22;64214;47.250;11.332;2024-03-06T00:59:51;27.74;57.76
75509;DHT22;64214;47.250;11.332;2024-03-06T01:00:22;27.75;57.74
75509;DHT22;64214;47.250;11.332;2024-03-06T01:00:52;27.74;57.69
75509;DHT22;64214;47.250;11.332;2024-03-06T01:01:23;27.75;57.57
75509;DHT22;64214;47.250;11.332;2024-03-06T01:01:54;27.75;57.51
75509;DHT22;64214;47.250;11.332;2024-03-06T01:02:27;27.72;57.62
75509;DHT22;64214;47.250;11.332;2024-03-06T01:02:58;27.74;57.64
75509;DHT22;64214;47.250;11.332;2024-03-06T01:03:29;27.75;57.52
75509;DHT22;64214;47.250;11.332;2024-03-06T01:04:00;27.74;57.46
75509;DHT22;64214;47.250;11.332;2024-03-06T01:04:31;27.74;57.57
75509;DHT22;64214;47.250;11.332;2024-03-06T01:05:01;27.75;57.46
75509;DHT22;64214;47.250;11.332;2024-03-06T01:05:34;27.75;57.53
75509;DHT22;64214;47.250;11.332;2024-03-06T01:06:05;27.74;57.52
75509;DHT22;64214;47.250;11.332;2024-03-06T01:06:35;27.75;57.46
75509;DHT22;64214;47.250;11.332;2024-03-06T01:07:06;27.77;57.36
75509;DHT22;64214;47.250;11.332;2024-03-06T01:07:37;27.77;57.35
75509;DHT22;64214;47.250;11.332;2024-03-06T01:08:08;27.77;57.30
75509;DHT22;64214;47.250;11.332;2024-03-06T01:08:39;27.75;57.20
75509;DHT22;64214;47.250;11.332;2024-03-06T01:09:09;27.74;57.01
75509;DHT22;64214;47.250;11.332;2024-03-06T01:09:40;27.71;56.64
75509;DHT22;64214;47.250;11.332;2024-03-06T01:10:11;27.75;56.76
75509;DHT22;64214;47.250;11.332;2024-03-06T01:10:42;27.75;56.55
75509;DHT22;64214;47.250;11.332;2024-03-06T01:11:13;27.75;56.64
75509;DHT22;64214;47.250;11.332;2024-03-06T01:11:47;27.75;56.94
75509;DHT22;64214;47.250;11.332;2024-03-06T01:12:18;27.74;57.08
75509;DHT22;64214;47.250;11.332;2024-03-06T01:12:49;27.74;57.23
75509;DHT22;64214;47.250;11.332;2024-03-06T01:13:20;27.74;57.32
75509;DHT22;64214;47.250;11.332;2024-03-06T01:13:50;27.77;57.27
75509;DHT22;64214;47.250;11.332;2024-03-06T01:14:21;27.77;57.22
75509;DHT22;64214;47.250;11.332;2024-03-06T01:14:52;27.74;57.22
75509;DHT22;64214;47.250;11.332;2024-03-06T01:15:23;27.75;57.22
75509;DHT22;64214;47.250;11.332;2024-03-06T01:15:53;27.75;57.33
75509;DHT22;64214;47.250;11.332;2024-03-06T01:16:24;27.77;57.31
75509;DHT22;64214;47.250;11.332;2024-03-06T01:16:55;27.75;57.63
75509;DHT22;64214;47.250;11.332;2024-03-06T01:17:26;27.74;57.66
75509;DHT22;64214;47.250;11.332;2024-03-06T01:17:57;27.74;57.78
75509;DHT22;64214;47.250;11.332;2024-03-06T01:18:28;27.74;57.83
75509;DHT22;64214;47.250;11.332;2024-03-06T01:18:58;27.74;57.42
75509;DHT22;64214;47.250;11.332;2024-03-06T01:19:29;27.77;57.28
75509;DHT22;64214;47.250;11.332;2024-03-06T01:20:00;27.75;57.25
75509;DHT22;64214;47.250;11.332;2024-03-06T01:20:31;27.72;57.32
75509;DHT22;64214;47.250;11.332;2024-03-06T01:21:02;27.75;57.48
75509;DHT22;64214;47.250;11.332;2024-03-06T01:21:34;27.74;57.42
75509;DHT22;64214;47.250;11.332;2024-03-06T01:22:05;27.75;57.34
75509;DHT22;64214;47.250;11.332;2024-03-06T01:22:35;27.74;57.46
75509;DHT22;64214;47.250;11.332;2024-03-06T01:23:06;27.75;57.13
75509;DHT22;64214;47.250;11.332;2024-03-06T01:23:37;27.77;57.18
75509;DHT22;64214;47.250;11.332;2024-03-06T01:24:08;27.75;57.25
75509;DHT22;64214;47.250;11.332;2024-03-06T01:24:39;27.74;57.32
75509;DHT22;64214;47.250;11.332;2024-03-06T01:25:09;27.74;57.45
75509;DHT22;64214;47.250;11.332;2024-03-06T01:25:40;27.72;57.28
75509;DHT22;64214;47.250;11.332;2024-03-06T01:26:11;27.74;57.23
75509;DHT22;64214;47.250;11.332;2024-03-06T01:26:42;27.75;57.26
75509;DHT22;64214;47.250;11.332;2024-03-06T01:27:12;27.74;57.20
75509;DHT22;64214;47.250;11.332;2024-03-06T01:27:43;27.75;57.28
75509;DHT22;64214;47.250;11.332;2024-03-06T01:28:14;27.75;57.24
75509;DHT22;64214;47.250;11.332;2024-03-06T01:28:45;27.74;57.23
75509;DHT22;64214;47.250;11.332;2024-03-06T01:29:16;27.75;57.16
75509;DHT22;64214;47.250;11.332;2024-03-06T01:29:48;27.74;56.99
75509;DHT22;64214;47.250;11.332;2024-03-06T01:30:19;27.74;57.04
75509;DHT22;64214;47.250;11.332;2024-03-06T01:30:50;27.72;56.91
75509;DHT22;64214;47.250;11.332;2024-03-06T01:31:20;27.74;56.67
75509;DHT22;64214;47.250;11.332;2024-03-06T01:31:51;27.74;56.74
75509;DHT22;64214;47.250;11.332;2024-03-06T01:32:22;27.72;56.57
75509;DHT22;64214;47.250;11.332;2024-03-06T01:32:53;27.74;56.32
75509;DHT22;64214;47.250;11.332;2024-03-06T01:33:24;27.72;56.23
75509;DHT22;64214;47.250;11.332;2024-03-06T01:33:54;27.72;56.54
75509;DHT22;64214;47.250;11.332;2024-03-06T01:34:25;27.74;57.00
75509;DHT22;64214;47.250;11.332;2024-03-06T01:34:56;27.74;57.04
75509;DHT22;64214;47.250;11.332;2024-03-06T01:35:27;27.74;56.81
75509;DHT22;64214;47.250;11.332;2024-03-06T01:35:58;27.74;56.89
75509;DHT22;64214;47.250;11.332;2024-03-06T01:36:28;27.77;56.81
75509;DHT22;64214;47.250;11.332;2024-03-06T01:36:59;27.75;56.90
75509;DHT22;64214;47.250;11.332;2024-03-06T01:37:30;27.74;57.02
75509;DHT22;64214;47.250;11.332;2024-03-06T01:38:01;27.74;57.32
75509;DHT22;64214;47.250;11.332;2024-03-06T01:38:32;27.74;57.48
75509;DHT22;64214;47.250;11.332;2024-03-06T01:39:02;27.77;57.57
75509;DHT22;64214;47.250;11.332;2024-03-06T01:39:33;27.71;57.17
75509;DHT22;64214;47.250;11.332;2024-03-06T01:40:06;27.75;57.02
75509;DHT22;64214;47.250;11.332;2024-03-06T01:40:42;27.74;57.25
75509;DHT22;64214;47.250;11.332;2024-03-06T01:41:13;27.75;57.38
75509;DHT22;64214;47.250;11.332;2024-03-06T01:41:47;27.74;57.33
75509;DHT22;64214;47.250;11.332;2024-03-06T01:42:18;27.75;57.17
75509;DHT22;64214;47.250;11.332;2024-03-06T01:42:49;27.74;57.28
75509;DHT22;64214;47.250;11.332;2024-03-06T01:43:24;27.74;57.32
75509;DHT22;64214;47.250;11.332;2024-03-06T01:43:55;27.71;57.16
75509;DHT22;64214;47.250;11.332;2024-03-06T01:44:25;27.74;57.01
75509;DHT22;64214;47.250;11.332;2024-03-06T01:44:56;27.71;56.96
75509;DHT22;64214;47.250;11.332;2024-03-06T01:45:27;27.74;57.01
75509;DHT22;64214;47.250;11.332;2024-03-06T01:45:58;27.74;56.89
75509;DHT22;64214;47.250;11.332;2024-03-06T01:46:31;27.75;56.82
75509;DHT22;64214;47.250;11.332;2024-03-06T01:47:02;27.75;56.96
75509;DHT22;64214;47.250;11.332;2024-03-06T01:47:32;27.74;57.13
75509;DHT22;64214;47.250;11.332;2024-03-06T01:48:04;27.75;57.07
75509;DHT22;64214;47.250;11.332;2024-03-06T01:48:38;27.74;57.03
75509;DHT22;64214;47.250;11.332;2024-03-06T01:49:10;27.74;56.94
75509;DHT22;64214;47.250;11.332;2024-03-06T01:49:42;27.75;57.15
75509;DHT22;64214;47.250;11.332;2024-03-06T01:50:13;27.75;57.18
75509;DHT22;64214;47.250;11.332;2024-03-06T01:50:43;27.75;57.26
75509;DHT22;64214;47.250;11.332;2024-03-06T01:51:14;27.77;57.18
75509;DHT22;64214;47.250;11.332;2024-03-06T01:51:48;27.78;56.76
75509;DHT22;64214;47.250;11.332;2024-03-06T01:52:19;27.75;56.70
75509;DHT22;64214;47.250;11.332;2024-03-06T01:52:51;27.72;56.98
75509;DHT22;64214;47.250;11.332;2024-03-06T01:53:22;27.74;56.76
75509;DHT22;64214;47.250;11.332;2024-03-06T01:53:55;27.74;56.45
75509;DHT22;64214;47.250;11.332;2024-03-06T01:54:26;27.72;56.57
75509;DHT22;64214;47.250;11.332;2024-03-06T01:54:57;27.72;56.44
75509;DHT22;64214;47.250;11.332;2024-03-06T01:55:28;27.74;56.03
75509;DHT22;64214;47.250;11.332;2024-03-06T01:55:59;27.71;55.97
75509;DHT22;64214;47.250;11.332;2024-03-06T01:56:33;27.72;56.31
75509;DHT22;64214;47.250;11.332;2024-03-06T01:57:04;27.72;56.48
75509;DHT22;64214;47.250;11.332;2024-03-06T01:57:37;27.69;56.48
75509;DHT22;64214;47.250;11.332;2024-03-06T01:58:08;27.74;56.57
75509;DHT22;64214;47.250;11.332;2024-03-06T01:58:39;27.72;56.57
75509;DHT22;64214;47.250;11.332;2024-03-06T01:59:13;27.75;56.71
75509;DHT22;64214;47.250;11.332;2024-03-06T01:59:45;27.74;56.70
75509;DHT22;64214;47.250;11.332;2024-03-06T02:00:16;27.77;56.73
75509;DHT22;64214;47.250;11.332;2024-03-06T02:00:48;27.74;56.98
75509;DHT22;64214;47.250;11.332;2024-03-06T02:01:19;27.74;57.26
75509;DHT22;64214;47.250;11.332;2024-03-06T02:01:54;27.77;57.41
75509;DHT22;64214;47.250;11.332;2024-03-06T02:02:25;27.77;57.27
75509;DHT22;64214;47.250;11.332;2024-03-06T02:02:56;27.74;56.95
75509;DHT22;64214;47.250;11.332;2024-03-06T02:03:26;27.75;56.74
75509;DHT22;64214;47.250;11.332;2024-03-06T02:03:57;27.75;56.84
75509;DHT22;64214;47.250;11.332;2024-03-06T02:04:28;27.75;56.92
75509;DHT22;64214;47.250;11.332;2024-03-06T02:04:59;27.74;56.98
75509;DHT22;64214;47.250;11.332;2024-03-06T02:05:31;27.75;57.12
75509;DHT22;64214;47.250;11.332;2024-03-06T02:06:02;27.77;57.04
75509;DHT22;64214;47.250;11.332;2024-03-06T02:06:33;27.74;57.04
75509;DHT22;64214;47.250;11.332;2024-03-06T02:07:08;27.75;56.95
75509;DHT22;64214;47.250;11.332;2024-03-06T02:07:40;27.75;56.81
75509;DHT22;64214;47.250;11.332;2024-03-06T02:08:13;27.72;56.63
75509;DHT22;64214;47.250;11.332;2024-03-06T02:08:44;27.72;56.63
75509;DHT22;64214;47.250;11.332;2024-03-06T02:09:15;27.75;56.91
75509;DHT22;64214;47.250;11.332;2024-03-06T02:09:46;27.75;56.92
75509;DHT22;64214;47.250;11.332;2024-03-06T02:10:17;27.75;56.94
75509;DHT22;64214;47.250;11.332;2024-03-06T02:10:48;27.72;56.73
75509;DHT22;64214;47.250;11.332;2024-03-06T02:11:18;27.74;56.85
75509;DHT22;64214;47.250;11.332;2024-03-06T02:11:49;27.75;56.72
75509;DHT22;64214;47.250;11.332;2024-03-06T02:12:27;27.75;56.83
75509;DHT22;64214;47.250;11.332;2024-03-06T02:12:58;27.74;56.73
75509;DHT22;64214;47.250;11.332;2024-03-06T02:13:29;27.75;56.62
75509;DHT22;64214;47.250;11.332;2024-03-06T02:14:00;27.75;56.72
75509;DHT22;64214;47.250;11.332;2024-03-06T02:14:31;27.77;56.77
75509;DHT22;64214;47.250;11.332;2024-03-06T02:15:02;27.74;56.61
75509;DHT22;64214;47.250;11.332;2024-03-06T02:15:33;27.72;56.65
75509;DHT22;64214;47.250;11.332;2024-03-06T02:16:04;27.72;56.31
75509;DHT22;64214;47.250;11.332;2024-03-06T02:16:35;27.74;56.03
75509;DHT22;64214;47.250;11.332;2024-03-06T02:17:06;27.72;56.32
75509;DHT22;64214;47.250;11.332;2024-03-06T02:17:37;27.71;55.93
75509;DHT22;64214;47.250;11.332;2024-03-06T02:18:08;27.74;55.83
75509;DHT22;64214;47.250;11.332;2024-03-06T02:18:51;27.74;55.99
75509;DHT22;64214;47.250;11.332;2024-03-06T02:19:22;27.72;56.14
75509;DHT22;64214;47.250;11.332;2024-03-06T02:19:53;27.71;56.39
75509;DHT22;64214;47.250;11.332;2024-03-06T02:20:24;27.75;56.41
75509;DHT22;64214;47.250;11.332;2024-03-06T02:20:55;27.74;56.60
75509;DHT22;64214;47.250;11.332;2024-03-06T02:21:26;27.74;56.36
75509;DHT22;64214;47.250;11.332;2024-03-06T02:21:57;27.75;56.40
75509;DHT22;64214;47.250;11.332;2024-03-06T02:22:28;27.75;56.66
75509;DHT22;64214;47.250;11.332;2024-03-06T02:22:58;27.75;56.69
75509;DHT22;64214;47.250;11.332;2024-03-06T02:23:29;27.74;56.68
75509;DHT22;64214;47.250;11.332;2024-03-06T02:24:00;27.75;57.06
75509;DHT22;64214;47.250;11.332;2024-03-06T02:24:31;27.75;57.06
75509;DHT22;64214;47.250;11.332;2024-03-06T02:25:01;27.74;56.77
75509;DHT22;64214;47.250;11.332;2024-03-06T02:25:33;27.77;56.55
75509;DHT22;64214;47.250;11.332;2024-03-06T02:26:04;27.74;56.52
75509;DHT22;64214;47.250;11.332;2024-03-06T02:26:35;27.74;56.68
75509;DHT22;64214;47.250;11.332;2024-03-06T02:27:06;27.75;56.69
75509;DHT22;64214;47.250;11.332;2024-03-06T02:27:36;27.71;56.85
75509;DHT22;64214;47.250;11.332;2024-03-06T02:28:08;27.74;56.67
75509;DHT22;64214;47.250;11.332;2024-03-06T02:28:39;27.74;56.61
75509;DHT22;64214;47.250;11.332;2024-03-06T02:29:10;27.72;56.57
75509;DHT22;64214;47.250;11.332;2024-03-06T02:29:41;27.74;56.74
75509;DHT22;64214;47.250;11.332;2024-03-06T02:30:11;27.74;56.69
75509;DHT22;64214;47.250;11.332;2024-03-06T02:30:43;27.74;56.80
75509;DHT22;64214;47.250;11.332;2024-03-06T02:31:13;27.75;56.48
75509;DHT22;64214;47.250;11.332;2024-03-06T02:31:44;27.72;56.32
75509;DHT22;64214;47.250;11.332;2024-03-06T02:32:15;27.75;56.56
75509;DHT22;64214;47.250;11.332;2024-03-06T02:32:48;27.74;56.55
75509;DHT22;64214;47.250;11.332;2024-03-06T02:33:18;27.75;56.50
75509;DHT22;64214;47.250;11.332;2024-03-06T02:33:49;27.77;56.52
75509;DHT22;64214;47.250;11.332;2024-03-06T02:34:20;27.74;56.50
75509;DHT22;64214;47.250;11.332;2024-03-06T02:34:51;27.74;56.59
75509;DHT22;64214;47.250;11.332;2024-03-06T02:35:22;27.75;56.54
75509;DHT22;64214;47.250;11.332;2024-03-06T02:35:53;27.74;56.54
75509;DHT22;64214;47.250;11.332;2024-03-06T02:36:24;27.75;56.48
75509;DHT22;64214;47.250;11.332;2024-03-06T02:36:55;27.75;56.25
75509;DHT22;64214;47.250;11.332;2024-03-06T02:37:26;27.74;56.28
75509;DHT22;64214;47.250;11.332;2024-03-06T02:37:57;27.75;56.40
75509;DHT22;64214;47.250;11.332;2024-03-06T02:38:28;27.75;56.24
75509;DHT22;64214;47.250;11.332;2024-03-06T02:38:59;27.74;56.05
75509;DHT22;64214;47.250;11.332;2024-03-06T02:39:30;27.71;55.94
75509;DHT22;64214;47.250;11.332;2024-03-06T02:40:00;27.74;55.72
75509;DHT22;64214;47.250;11.332;2024-03-06T02:40:31;27.72;55.46
75509;DHT22;64214;47.250;11.332;2024-03-06T02:41:02;27.72;55.65
75509;DHT22;64214;47.250;11.332;2024-03-06T02:41:34;27.75;56.00
75509;DHT22;64214;47.250;11.332;2024-03-06T02:42:04;27.72;56.16
75509;DHT22;64214;47.250;11.332;2024-03-06T02:42:36;27.74;56.22
75509;DHT22;64214;47.250;11.332;2024-03-06T02:43:09;27.75;56.15
75509;DHT22;64214;47.250;11.332;2024-03-06T02:43:39;27.74;56.10
75509;DHT22;64214;47.250;11.332;2024-03-06T02:44:10;27.75;55.97
75509;DHT22;64214;47.250;11.332;2024-03-06T02:44:41;27.75;55.99
75509;DHT22;64214;47.250;11.332;2024-03-06T02:45:12;27.74;56.09
75509;DHT22;64214;47.250;11.332;2024-03-06T02:45:43;27.74;56.28
75509;DHT22;64214;47.250;11.332;2024-03-06T02:46:13;27.74;56.64
75509;DHT22;64214;47.250;11.332;2024-03-06T02:46:47;27.75;56.47
75509;DHT22;64214;47.250;11.332;2024-03-06T02:47:19;27.74;56.52
75509;DHT22;64214;47.250;11.332;2024-03-06T02:47:50;27.74;56.53
75509;DHT22;64214;47.250;11.332;2024-03-06T02:48:20;27.74;56.77
75509;DHT22;64214;47.250;11.332;2024-03-06T02:48:51;27.74;56.67
75509;DHT22;64214;47.250;11.332;2024-03-06T02:49:22;27.72;56.48
75509;DHT22;64214;47.250;11.332;2024-03-06T02:49:53;27.75;56.40
75509;DHT22;64214;47.250;11.332;2024-03-06T02:50:23;27.74;56.22
75509;DHT22;64214;47.250;11.332;2024-03-06T02:50:55;27.74;56.20
75509;DHT22;64214;47.250;11.332;2024-03-06T02:51:25;27.74;56.32
75509;DHT22;64214;47.250;11.332;2024-03-06T02:51:56;27.75;56.22
75509;DHT22;64214;47.250;11.332;2024-03-06T02:52:28;27.72;56.30
75509;DHT22;64214;47.250;11.332;2024-03-06T02:52:59;27.75;56.31
75509;DHT22;64214;47.250;11.332;2024-03-06T02:53:29;27.74;56.46
75509;DHT22;64214;47.250;11.332;2024-03-06T02:54:00;27.75;56.57
75509;DHT22;64214;47.250;11.332;2024-03-06T02:54:31;27.75;56.29
75509;DHT22;64214;47.250;11.332;2024-03-06T02:55:02;27.74;56.24
75509;DHT22;64214;47.250;11.332;2024-03-06T02:55:33;27.74;56.38
75509;DHT22;64214;47.250;11.332;2024-03-06T02:56:04;27.75;56.33
75509;DHT22;64214;47.250;11.332;2024-03-06T02:56:35;27.75;56.07
75509;DHT22;64214;47.250;11.332;2024-03-06T02:57:06;27.74;56.27
75509;DHT22;64214;47.250;11.332;2024-03-06T02:57:37;27.72;56.37
75509;DHT22;64214;47.250;11.332;2024-03-06T02:58:08;27.75;56.37
75509;DHT22;64214;47.250;11.332;2024-03-06T02:58:39;27.72;56.10
75509;DHT22;64214;47.250;11.332;2024-03-06T02:59:10;27.75;56.03
75509;DHT22;64214;47.250;11.332;2024-03-06T02:59:40;27.75;56.09
75509;DHT22;64214;47.250;11.332;2024-03-06T03:00:11;27.74;56.03
75509;DHT22;64214;47.250;11.332;2024-03-06T03:00:43;27.74;55.84
75509;DHT22;64214;47.250;11.332;2024-03-06T03:01:14;27.72;55.64
75509;DHT22;64214;47.250;11.332;2024-03-06T03:01:45;27.72;55.58
75509;DHT22;64214;47.250;11.332;2024-03-06T03:02:16;27.71;55.34
75509;DHT22;64214;47.250;11.332;2024-03-06T03:02:46;27.72;55.30
75509;DHT22;64214;47.250;11.332;2024-03-06T03:03:17;27.71;55.31
75509;DHT22;64214;47.250;11.332;2024-03-06T03:03:49;27.72;55.61
75509;DHT22;64214;47.250;11.332;2024-03-06T03:04:21;27.74;55.78
75509;DHT22;64214;47.250;11.332;2024-03-06T03:04:53;27.74;56.03
75509;DHT22;64214;47.250;11.332;2024-03-06T03:05:24;27.72;56.10
75509;DHT22;64214;47.250;11.332;2024-03-06T03:05:54;27.74;56.02
75509;DHT22;64214;47.250;11.332;2024-03-06T03:06:25;27.72;55.92
75509;DHT22;64214;47.250;11.332;2024-03-06T03:06:56;27.75;55.95
75509;DHT22;64214;47.250;11.332;2024-03-06T03:07:27;27.74;56.00
75509;DHT22;64214;47.250;11.332;2024-03-06T03:07:58;27.74;56.28
75509;DHT22;64214;47.250;11.332;2024-03-06T03:08:29;27.74;56.40
75509;DHT22;64214;47.250;11.332;2024-03-06T03:08:59;27.72;56.50
75509;DHT22;64214;47.250;11.332;2024-03-06T03:09:30;27.75;56.32
75509;DHT22;64214;47.250;11.332;2024-03-06T03:10:01;27.74;56.36
75509;DHT22;64214;47.250;11.332;2024-03-06T03:10:32;27.77;56.28
75509;DHT22;64214;47.250;11.332;2024-03-06T03:11:05;27.72;55.99
75509;DHT22;64214;47.250;11.332;2024-03-06T03:11:36;27.74;55.99
75509;DHT22;64214;47.250;11.332;2024-03-06T03:12:06;27.77;56.22
75509;DHT22;64214;47.250;11.332;2024-03-06T03:12:40;27.75;56.28
75509;DHT22;64214;47.250;11.332;2024-03-06T03:13:11;27.75;56.09
75509;DHT22;64214;47.250;11.332;2024-03-06T03:13:42;27.77;55.83